sensor_id;sensor_type;location;lat;lon;timestamp;P1;durP1;ratioP1;P2;durP2;ratioP2
70385;SDS011;63206;55.650;37.500;2023-04-16T00:02:17;11.35;;;3.67;;
70385;SDS011;63206;55.650;37.500;2023-04-16T00:04:58;8.55;;;3.28;;
70385;SDS011;63206;55.650;37.500;2023-04-16T00:07:30;10.18;;;3.70;;
70385;SDS011;63206;55.650;37.500;2023-04-16T00:10:16;11.93;;;3.70;;
70385;SDS011;63206;55.650;37.500;2023-04-16T00:12:48;10.80;;;3.83;;
70385;SDS011;63206;55.650;37.500;2023-04-16T00:15:35;11.70;;;3.80;;
70385;SDS011;63206;55.650;37.500;2023-04-16T00:18:18;14.13;;;3.50;;
70385;SDS011;63206;55.650;37.500;2023-04-16T00:21:00;9.82;;;3.35;;
70385;SDS011;63206;55.650;37.500;2023-04-16T00:23:39;8.30;;;3.47;;
70385;SDS011;63206;55.650;37.500;2023-04-16T00:26:31;11.43;;;4.00;;
70385;SDS011;63206;55.650;37.500;2023-04-16T00:29:18;9.85;;;3.95;;
70385;SDS011;63206;55.650;37.500;2023-04-16T00:32:05;11.48;;;4.03;;
70385;SDS011;63206;55.650;37.500;2023-04-16T00:34:52;10.30;;;3.72;;
70385;SDS011;63206;55.650;37.500;2023-04-16T00:37:42;8.63;;;4.07;;
70385;SDS011;63206;55.650;37.500;2023-04-16T00:40:28;9.65;;;4.45;;
70385;SDS011;63206;55.650;37.500;2023-04-16T00:43:06;11.73;;;3.97;;
70385;SDS011;63206;55.650;37.500;2023-04-16T00:45:49;10.57;;;3.97;;
70385;SDS011;63206;55.650;37.500;2023-04-16T00:48:28;11.43;;;4.10;;
70385;SDS011;63206;55.650;37.500;2023-04-16T00:51:17;12.85;;;4.32;;
70385;SDS011;63206;55.650;37.500;2023-04-16T00:54:03;10.02;;;3.97;;
70385;SDS011;63206;55.650;37.500;2023-04-16T00:56:40;9.80;;;4.20;;
70385;SDS011;63206;55.650;37.500;2023-04-16T00:59:25;10.70;;;3.90;;
70385;SDS011;63206;55.650;37.500;2023-04-16T01:04:46;11.15;;;3.63;;
70385;SDS011;63206;55.650;37.500;2023-04-16T01:07:24;9.13;;;3.75;;
70385;SDS011;63206;55.650;37.500;2023-04-16T01:10:07;13.27;;;3.90;;
70385;SDS011;63206;55.650;37.500;2023-04-16T01:13:06;11.55;;;4.10;;
70385;SDS011;63206;55.650;37.500;2023-04-16T01:16:07;10.07;;;4.00;;
70385;SDS011;63206;55.650;37.500;2023-04-16T01:18:54;12.82;;;4.55;;
70385;SDS011;63206;55.650;37.500;2023-04-16T01:21:29;12.35;;;4.70;;
70385;SDS011;63206;55.650;37.500;2023-04-16T01:24:16;9.63;;;3.65;;
70385;SDS011;63206;55.650;37.500;2023-04-16T01:27:03;10.70;;;3.75;;
70385;SDS011;63206;55.650;37.500;2023-04-16T01:29:46;10.63;;;4.40;;
70385;SDS011;63206;55.650;37.500;2023-04-16T01:32:31;11.93;;;4.28;;
70385;SDS011;63206;55.650;37.500;2023-04-16T01:35:10;11.38;;;4.35;;
70385;SDS011;63206;55.650;37.500;2023-04-16T01:38:08;17.05;;;4.50;;
70385;SDS011;63206;55.650;37.500;2023-04-16T01:40:40;11.57;;;4.28;;
70385;SDS011;63206;55.650;37.500;2023-04-16T01:43:26;13.85;;;4.85;;
70385;SDS011;63206;55.650;37.500;2023-04-16T01:46:17;11.35;;;4.93;;
70385;SDS011;63206;55.650;37.500;2023-04-16T01:49:01;11.05;;;4.25;;
70385;SDS011;63206;55.650;37.500;2023-04-16T01:51:34;13.60;;;4.35;;
70385;SDS011;63206;55.650;37.500;2023-04-16T01:54:22;10.20;;;5.13;;
70385;SDS011;63206;55.650;37.500;2023-04-16T01:57:09;13.63;;;4.60;;
70385;SDS011;63206;55.650;37.500;2023-04-16T01:59:56;12.48;;;4.55;;
70385;SDS011;63206;55.650;37.500;2023-04-16T02:02:35;11.27;;;4.45;;
70385;SDS011;63206;55.650;37.500;2023-04-16T02:05:22;10.82;;;4.30;;
70385;SDS011;63206;55.650;37.500;2023-04-16T02:08:06;11.70;;;4.47;;
70385;SDS011;63206;55.650;37.500;2023-04-16T02:13:24;14.18;;;4.20;;
70385;SDS011;63206;55.650;37.500;2023-04-16T02:16:04;12.90;;;4.90;;
70385;SDS011;63206;55.650;37.500;2023-04-16T02:19:04;12.85;;;4.75;;
70385;SDS011;63206;55.650;37.500;2023-04-16T02:21:46;9.43;;;4.55;;
70385;SDS011;63206;55.650;37.500;2023-04-16T02:24:17;12.70;;;4.20;;
70385;SDS011;63206;55.650;37.500;2023-04-16T02:26:55;13.85;;;4.53;;
70385;SDS011;63206;55.650;37.500;2023-04-16T02:29:42;12.00;;;4.55;;
70385;SDS011;63206;55.650;37.500;2023-04-16T02:32:22;12.25;;;4.50;;
70385;SDS011;63206;55.650;37.500;2023-04-16T02:35:09;10.55;;;4.80;;
70385;SDS011;63206;55.650;37.500;2023-04-16T02:37:46;11.65;;;4.43;;
70385;SDS011;63206;55.650;37.500;2023-04-16T02:40:17;15.95;;;4.88;;
70385;SDS011;63206;55.650;37.500;2023-04-16T02:42:50;11.48;;;4.45;;
70385;SDS011;63206;55.650;37.500;2023-04-16T02:45:31;13.32;;;5.03;;
70385;SDS011;63206;55.650;37.500;2023-04-16T02:48:04;12.85;;;4.95;;
70385;SDS011;63206;55.650;37.500;2023-04-16T02:50:49;11.65;;;4.30;;
70385;SDS011;63206;55.650;37.500;2023-04-16T02:53:23;11.63;;;4.80;;
70385;SDS011;63206;55.650;37.500;2023-04-16T02:55:56;12.00;;;5.18;;
70385;SDS011;63206;55.650;37.500;2023-04-16T02:58:36;11.88;;;4.50;;
70385;SDS011;63206;55.650;37.500;2023-04-16T03:01:07;12.15;;;4.80;;
70385;SDS011;63206;55.650;37.500;2023-04-16T03:03:47;14.30;;;4.80;;
70385;SDS011;63206;55.650;37.500;2023-04-16T03:06:30;10.25;;;4.72;;
70385;SDS011;63206;55.650;37.500;2023-04-16T03:09:08;10.60;;;4.63;;
70385;SDS011;63206;55.650;37.500;2023-04-16T03:11:36;13.05;;;4.57;;
70385;SDS011;63206;55.650;37.500;2023-04-16T03:14:07;12.68;;;4.68;;
70385;SDS011;63206;55.650;37.500;2023-04-16T03:16:42;12.05;;;4.88;;
70385;SDS011;63206;55.650;37.500;2023-04-16T03:19:15;12.02;;;4.72;;
70385;SDS011;63206;55.650;37.500;2023-04-16T03:21:53;13.00;;;4.95;;
70385;SDS011;63206;55.650;37.500;2023-04-16T03:24:30;14.85;;;4.53;;
70385;SDS011;63206;55.650;37.500;2023-04-16T03:27:06;11.07;;;4.32;;
70385;SDS011;63206;55.650;37.500;2023-04-16T03:29:40;9.73;;;4.75;;
70385;SDS011;63206;55.650;37.500;2023-04-16T03:32:17;11.68;;;4.75;;
70385;SDS011;63206;55.650;37.500;2023-04-16T03:35:05;11.25;;;4.72;;
70385;SDS011;63206;55.650;37.500;2023-04-16T03:37:39;13.23;;;4.95;;
70385;SDS011;63206;55.650;37.500;2023-04-16T03:40:25;14.85;;;5.00;;
70385;SDS011;63206;55.650;37.500;2023-04-16T03:43:00;13.10;;;4.50;;
70385;SDS011;63206;55.650;37.500;2023-04-16T03:45:42;13.25;;;5.07;;
70385;SDS011;63206;55.650;37.500;2023-04-16T03:48:23;12.57;;;4.50;;
70385;SDS011;63206;55.650;37.500;2023-04-16T03:51:20;13.07;;;4.63;;
70385;SDS011;63206;55.650;37.500;2023-04-16T03:53:51;12.80;;;4.63;;
70385;SDS011;63206;55.650;37.500;2023-04-16T03:56:25;12.27;;;4.93;;
70385;SDS011;63206;55.650;37.500;2023-04-16T03:59:02;14.23;;;4.40;;
70385;SDS011;63206;55.650;37.500;2023-04-16T04:01:36;10.02;;;4.60;;
70385;SDS011;63206;55.650;37.500;2023-04-16T04:04:17;12.02;;;4.97;;
70385;SDS011;63206;55.650;37.500;2023-04-16T04:06:47;12.63;;;4.80;;
70385;SDS011;63206;55.650;37.500;2023-04-16T04:09:18;10.25;;;4.28;;
70385;SDS011;63206;55.650;37.500;2023-04-16T04:11:49;12.27;;;4.45;;
70385;SDS011;63206;55.650;37.500;2023-04-16T04:14:27;12.82;;;4.78;;
70385;SDS011;63206;55.650;37.500;2023-04-16T04:17:04;14.77;;;5.28;;
70385;SDS011;63206;55.650;37.500;2023-04-16T04:24:41;11.18;;;4.97;;
70385;SDS011;63206;55.650;37.500;2023-04-16T04:27:11;10.85;;;4.22;;
70385;SDS011;63206;55.650;37.500;2023-04-16T04:29:43;13.65;;;4.70;;
70385;SDS011;63206;55.650;37.500;2023-04-16T04:32:13;11.25;;;4.30;;
70385;SDS011;63206;55.650;37.500;2023-04-16T04:34:52;9.75;;;3.80;;
70385;SDS011;63206;55.650;37.500;2023-04-16T04:37:23;13.00;;;4.43;;
70385;SDS011;63206;55.650;37.500;2023-04-16T04:40:03;9.98;;;4.28;;
70385;SDS011;63206;55.650;37.500;2023-04-16T04:42:36;13.70;;;4.78;;
70385;SDS011;63206;55.650;37.500;2023-04-16T04:45:13;12.88;;;4.22;;
70385;SDS011;63206;55.650;37.500;2023-04-16T04:48:01;14.45;;;4.10;;
70385;SDS011;63206;55.650;37.500;2023-04-16T04:50:33;9.73;;;3.90;;
70385;SDS011;63206;55.650;37.500;2023-04-16T04:53:12;14.68;;;4.55;;
70385;SDS011;63206;55.650;37.500;2023-04-16T04:55:47;9.10;;;4.00;;
70385;SDS011;63206;55.650;37.500;2023-04-16T04:58:18;13.00;;;4.20;;
70385;SDS011;63206;55.650;37.500;2023-04-16T05:00:55;10.20;;;3.60;;
70385;SDS011;63206;55.650;37.500;2023-04-16T05:03:28;10.82;;;3.80;;
70385;SDS011;63206;55.650;37.500;2023-04-16T05:06:15;11.07;;;4.20;;
70385;SDS011;63206;55.650;37.500;2023-04-16T05:08:46;9.90;;;4.15;;
70385;SDS011;63206;55.650;37.500;2023-04-16T05:11:19;9.27;;;3.67;;
70385;SDS011;63206;55.650;37.500;2023-04-16T05:13:57;11.30;;;4.10;;
70385;SDS011;63206;55.650;37.500;2023-04-16T05:16:34;10.35;;;4.20;;
70385;SDS011;63206;55.650;37.500;2023-04-16T05:19:12;11.20;;;3.90;;
70385;SDS011;63206;55.650;37.500;2023-04-16T05:21:43;10.00;;;4.10;;
70385;SDS011;63206;55.650;37.500;2023-04-16T05:24:13;9.80;;;4.00;;
70385;SDS011;63206;55.650;37.500;2023-04-16T05:26:44;9.95;;;4.00;;
70385;SDS011;63206;55.650;37.500;2023-04-16T05:29:18;13.70;;;4.28;;
70385;SDS011;63206;55.650;37.500;2023-04-16T05:31:52;10.52;;;3.85;;
70385;SDS011;63206;55.650;37.500;2023-04-16T05:34:32;9.27;;;4.03;;
70385;SDS011;63206;55.650;37.500;2023-04-16T05:37:09;10.35;;;3.67;;
70385;SDS011;63206;55.650;37.500;2023-04-16T05:39:41;9.90;;;4.05;;
70385;SDS011;63206;55.650;37.500;2023-04-16T05:42:12;10.20;;;3.83;;
70385;SDS011;63206;55.650;37.500;2023-04-16T05:44:50;11.65;;;3.88;;
70385;SDS011;63206;55.650;37.500;2023-04-16T05:47:26;9.77;;;4.15;;
70385;SDS011;63206;55.650;37.500;2023-04-16T05:50:04;11.23;;;3.83;;
70385;SDS011;63206;55.650;37.500;2023-04-16T05:52:38;10.80;;;3.78;;
70385;SDS011;63206;55.650;37.500;2023-04-16T05:55:15;9.38;;;3.63;;
70385;SDS011;63206;55.650;37.500;2023-04-16T05:57:55;8.20;;;3.28;;
70385;SDS011;63206;55.650;37.500;2023-04-16T06:00:35;10.38;;;3.75;;
70385;SDS011;63206;55.650;37.500;2023-04-16T06:03:12;11.02;;;3.60;;
70385;SDS011;63206;55.650;37.500;2023-04-16T06:05:47;9.60;;;3.53;;
70385;SDS011;63206;55.650;37.500;2023-04-16T06:08:27;9.82;;;3.95;;
70385;SDS011;63206;55.650;37.500;2023-04-16T06:11:00;8.65;;;3.70;;
70385;SDS011;63206;55.650;37.500;2023-04-16T06:13:32;9.93;;;3.83;;
70385;SDS011;63206;55.650;37.500;2023-04-16T06:16:29;9.02;;;3.53;;
70385;SDS011;63206;55.650;37.500;2023-04-16T06:19:00;8.32;;;3.60;;
70385;SDS011;63206;55.650;37.500;2023-04-16T06:21:40;11.18;;;4.20;;
70385;SDS011;63206;55.650;37.500;2023-04-16T06:24:14;10.77;;;3.53;;
70385;SDS011;63206;55.650;37.500;2023-04-16T06:26:54;10.80;;;3.78;;
70385;SDS011;63206;55.650;37.500;2023-04-16T06:29:31;11.52;;;3.75;;
70385;SDS011;63206;55.650;37.500;2023-04-16T06:32:02;12.18;;;4.22;;
70385;SDS011;63206;55.650;37.500;2023-04-16T06:34:39;11.77;;;3.45;;
70385;SDS011;63206;55.650;37.500;2023-04-16T06:37:11;12.02;;;3.80;;
70385;SDS011;63206;55.650;37.500;2023-04-16T06:39:42;9.68;;;4.03;;
70385;SDS011;63206;55.650;37.500;2023-04-16T06:42:19;9.20;;;3.58;;
70385;SDS011;63206;55.650;37.500;2023-04-16T06:44:50;9.55;;;3.83;;
70385;SDS011;63206;55.650;37.500;2023-04-16T06:47:21;10.48;;;3.90;;
70385;SDS011;63206;55.650;37.500;2023-04-16T06:49:55;9.00;;;3.47;;
70385;SDS011;63206;55.650;37.500;2023-04-16T06:52:26;14.05;;;4.63;;
70385;SDS011;63206;55.650;37.500;2023-04-16T06:57:35;13.35;;;3.88;;
70385;SDS011;63206;55.650;37.500;2023-04-16T07:00:05;11.95;;;3.85;;
70385;SDS011;63206;55.650;37.500;2023-04-16T07:05:20;12.38;;;3.83;;
70385;SDS011;63206;55.650;37.500;2023-04-16T07:07:54;9.00;;;4.13;;
70385;SDS011;63206;55.650;37.500;2023-04-16T07:10:40;8.45;;;3.60;;
70385;SDS011;63206;55.650;37.500;2023-04-16T07:13:23;11.73;;;3.95;;
70385;SDS011;63206;55.650;37.500;2023-04-16T07:15:55;12.75;;;3.95;;
70385;SDS011;63206;55.650;37.500;2023-04-16T07:18:35;11.85;;;3.70;;
70385;SDS011;63206;55.650;37.500;2023-04-16T07:21:06;8.70;;;3.28;;
70385;SDS011;63206;55.650;37.500;2023-04-16T07:26:23;10.40;;;3.70;;
70385;SDS011;63206;55.650;37.500;2023-04-16T07:28:57;9.85;;;3.80;;
70385;SDS011;63206;55.650;37.500;2023-04-16T07:31:41;10.52;;;3.60;;
70385;SDS011;63206;55.650;37.500;2023-04-16T07:36:52;8.57;;;3.72;;
70385;SDS011;63206;55.650;37.500;2023-04-16T07:39:33;7.40;;;3.33;;
70385;SDS011;63206;55.650;37.500;2023-04-16T07:42:10;10.73;;;3.60;;
70385;SDS011;63206;55.650;37.500;2023-04-16T07:44:44;10.15;;;3.60;;
70385;SDS011;63206;55.650;37.500;2023-04-16T07:47:18;9.68;;;3.70;;
70385;SDS011;63206;55.650;37.500;2023-04-16T07:49:53;9.38;;;3.67;;
70385;SDS011;63206;55.650;37.500;2023-04-16T07:52:32;10.57;;;3.65;;
70385;SDS011;63206;55.650;37.500;2023-04-16T07:55:09;12.32;;;4.10;;
70385;SDS011;63206;55.650;37.500;2023-04-16T07:57:40;7.70;;;3.60;;
70385;SDS011;63206;55.650;37.500;2023-04-16T08:00:14;10.30;;;3.97;;
70385;SDS011;63206;55.650;37.500;2023-04-16T08:02:47;8.65;;;3.63;;
70385;SDS011;63206;55.650;37.500;2023-04-16T08:05:21;10.05;;;3.78;;
70385;SDS011;63206;55.650;37.500;2023-04-16T08:07:51;10.45;;;3.70;;
70385;SDS011;63206;55.650;37.500;2023-04-16T08:10:23;9.32;;;3.20;;
70385;SDS011;63206;55.650;37.500;2023-04-16T08:13:00;9.57;;;4.13;;
70385;SDS011;63206;55.650;37.500;2023-04-16T08:15:38;10.25;;;3.83;;
70385;SDS011;63206;55.650;37.500;2023-04-16T08:18:09;10.30;;;4.05;;
70385;SDS011;63206;55.650;37.500;2023-04-16T08:20:45;9.07;;;3.67;;
70385;SDS011;63206;55.650;37.500;2023-04-16T08:23:22;9.88;;;4.07;;
70385;SDS011;63206;55.650;37.500;2023-04-16T08:25:54;9.77;;;4.40;;
70385;SDS011;63206;55.650;37.500;2023-04-16T08:28:36;9.25;;;3.97;;
70385;SDS011;63206;55.650;37.500;2023-04-16T08:31:11;17.45;;;5.30;;
70385;SDS011;63206;55.650;37.500;2023-04-16T08:33:51;8.10;;;3.75;;
70385;SDS011;63206;55.650;37.500;2023-04-16T08:36:28;8.90;;;3.78;;
70385;SDS011;63206;55.650;37.500;2023-04-16T08:39:06;10.07;;;3.78;;
70385;SDS011;63206;55.650;37.500;2023-04-16T08:41:46;8.27;;;4.07;;
70385;SDS011;63206;55.650;37.500;2023-04-16T08:44:25;9.02;;;4.05;;
70385;SDS011;63206;55.650;37.500;2023-04-16T08:47:05;9.35;;;4.30;;
70385;SDS011;63206;55.650;37.500;2023-04-16T08:49:45;9.02;;;4.07;;
70385;SDS011;63206;55.650;37.500;2023-04-16T08:52:14;8.75;;;4.20;;
70385;SDS011;63206;55.650;37.500;2023-04-16T08:55:05;9.63;;;3.90;;
70385;SDS011;63206;55.650;37.500;2023-04-16T08:57:40;9.23;;;4.07;;
70385;SDS011;63206;55.650;37.500;2023-04-16T09:00:15;12.88;;;4.13;;
70385;SDS011;63206;55.650;37.500;2023-04-16T09:02:56;13.55;;;4.10;;
70385;SDS011;63206;55.650;37.500;2023-04-16T09:05:37;11.98;;;4.25;;
70385;SDS011;63206;55.650;37.500;2023-04-16T09:08:30;10.13;;;4.50;;
70385;SDS011;63206;55.650;37.500;2023-04-16T09:11:12;9.85;;;4.43;;
70385;SDS011;63206;55.650;37.500;2023-04-16T09:13:49;11.38;;;4.35;;
70385;SDS011;63206;55.650;37.500;2023-04-16T09:16:36;10.77;;;4.28;;
70385;SDS011;63206;55.650;37.500;2023-04-16T09:19:17;11.35;;;4.32;;
70385;SDS011;63206;55.650;37.500;2023-04-16T09:21:47;9.73;;;4.45;;
70385;SDS011;63206;55.650;37.500;2023-04-16T09:24:22;9.15;;;4.15;;
70385;SDS011;63206;55.650;37.500;2023-04-16T09:27:00;10.25;;;4.30;;
70385;SDS011;63206;55.650;37.500;2023-04-16T09:29:44;8.27;;;4.00;;
70385;SDS011;63206;55.650;37.500;2023-04-16T09:32:13;10.77;;;4.47;;
70385;SDS011;63206;55.650;37.500;2023-04-16T09:35:00;8.48;;;3.47;;
70385;SDS011;63206;55.650;37.500;2023-04-16T09:37:32;10.38;;;4.50;;
70385;SDS011;63206;55.650;37.500;2023-04-16T09:40:12;8.50;;;4.22;;
70385;SDS011;63206;55.650;37.500;2023-04-16T09:42:50;9.70;;;3.95;;
70385;SDS011;63206;55.650;37.500;2023-04-16T09:45:33;8.68;;;4.22;;
70385;SDS011;63206;55.650;37.500;2023-04-16T09:48:30;8.07;;;4.25;;
70385;SDS011;63206;55.650;37.500;2023-04-16T09:51:08;9.90;;;4.15;;
70385;SDS011;63206;55.650;37.500;2023-04-16T09:53:39;9.05;;;4.15;;
70385;SDS011;63206;55.650;37.500;2023-04-16T09:56:10;8.95;;;3.60;;
70385;SDS011;63206;55.650;37.500;2023-04-16T09:58:41;9.23;;;4.07;;
70385;SDS011;63206;55.650;37.500;2023-04-16T10:01:16;9.60;;;4.05;;
70385;SDS011;63206;55.650;37.500;2023-04-16T10:03:48;12.15;;;4.53;;
70385;SDS011;63206;55.650;37.500;2023-04-16T10:06:43;12.23;;;4.47;;
70385;SDS011;63206;55.650;37.500;2023-04-16T10:09:17;10.27;;;4.50;;
70385;SDS011;63206;55.650;37.500;2023-04-16T10:12:01;8.57;;;4.18;;
70385;SDS011;63206;55.650;37.500;2023-04-16T10:14:32;8.77;;;4.13;;
70385;SDS011;63206;55.650;37.500;2023-04-16T10:19:40;10.93;;;3.83;;
70385;SDS011;63206;55.650;37.500;2023-04-16T10:22:26;7.70;;;3.85;;
70385;SDS011;63206;55.650;37.500;2023-04-16T10:25:04;7.75;;;3.80;;
70385;SDS011;63206;55.650;37.500;2023-04-16T10:27:35;11.52;;;3.70;;
70385;SDS011;63206;55.650;37.500;2023-04-16T10:30:16;7.55;;;3.58;;
70385;SDS011;63206;55.650;37.500;2023-04-16T10:32:51;8.32;;;3.88;;
70385;SDS011;63206;55.650;37.500;2023-04-16T10:35:32;8.90;;;4.55;;
70385;SDS011;63206;55.650;37.500;2023-04-16T10:38:25;9.18;;;4.28;;
70385;SDS011;63206;55.650;37.500;2023-04-16T10:41:05;8.75;;;4.50;;
70385;SDS011;63206;55.650;37.500;2023-04-16T10:43:38;9.35;;;4.30;;
70385;SDS011;63206;55.650;37.500;2023-04-16T10:46:20;9.80;;;4.10;;
70385;SDS011;63206;55.650;37.500;2023-04-16T10:49:14;8.85;;;3.97;;
70385;SDS011;63206;55.650;37.500;2023-04-16T10:51:55;11.20;;;4.50;;
70385;SDS011;63206;55.650;37.500;2023-04-16T10:54:36;7.85;;;4.30;;
70385;SDS011;63206;55.650;37.500;2023-04-16T10:57:09;11.15;;;4.20;;
70385;SDS011;63206;55.650;37.500;2023-04-16T10:59:42;9.63;;;4.25;;
70385;SDS011;63206;55.650;37.500;2023-04-16T11:02:15;8.85;;;4.07;;
70385;SDS011;63206;55.650;37.500;2023-04-16T11:05:02;8.13;;;3.65;;
70385;SDS011;63206;55.650;37.500;2023-04-16T11:07:32;8.63;;;3.83;;
70385;SDS011;63206;55.650;37.500;2023-04-16T11:10:06;9.63;;;4.20;;
70385;SDS011;63206;55.650;37.500;2023-04-16T11:12:55;8.43;;;3.97;;
70385;SDS011;63206;55.650;37.500;2023-04-16T11:15:26;9.27;;;4.32;;
70385;SDS011;63206;55.650;37.500;2023-04-16T11:18:07;7.93;;;4.13;;
70385;SDS011;63206;55.650;37.500;2023-04-16T11:20:45;8.20;;;4.22;;
70385;SDS011;63206;55.650;37.500;2023-04-16T11:23:16;8.63;;;4.35;;
70385;SDS011;63206;55.650;37.500;2023-04-16T11:26:04;9.30;;;4.40;;
70385;SDS011;63206;55.650;37.500;2023-04-16T11:28:38;9.52;;;4.03;;
70385;SDS011;63206;55.650;37.500;2023-04-16T11:31:09;8.50;;;4.28;;
70385;SDS011;63206;55.650;37.500;2023-04-16T11:33:41;8.27;;;3.88;;
70385;SDS011;63206;55.650;37.500;2023-04-16T11:36:21;8.00;;;4.00;;
70385;SDS011;63206;55.650;37.500;2023-04-16T11:38:59;9.88;;;3.78;;
70385;SDS011;63206;55.650;37.500;2023-04-16T11:41:33;8.20;;;3.90;;
70385;SDS011;63206;55.650;37.500;2023-04-16T11:44:23;8.90;;;4.20;;
70385;SDS011;63206;55.650;37.500;2023-04-16T11:46:59;9.50;;;4.30;;
70385;SDS011;63206;55.650;37.500;2023-04-16T11:49:49;10.70;;;4.22;;
70385;SDS011;63206;55.650;37.500;2023-04-16T11:52:31;8.65;;;4.15;;
70385;SDS011;63206;55.650;37.500;2023-04-16T11:55:11;8.75;;;4.18;;
70385;SDS011;63206;55.650;37.500;2023-04-16T11:57:57;9.75;;;4.50;;
70385;SDS011;63206;55.650;37.500;2023-04-16T12:00:53;10.93;;;4.28;;
70385;SDS011;63206;55.650;37.500;2023-04-16T12:03:41;9.25;;;4.20;;
70385;SDS011;63206;55.650;37.500;2023-04-16T12:06:22;8.48;;;4.15;;
70385;SDS011;63206;55.650;37.500;2023-04-16T12:08:58;7.88;;;4.07;;
70385;SDS011;63206;55.650;37.500;2023-04-16T12:11:44;8.77;;;4.07;;
70385;SDS011;63206;55.650;37.500;2023-04-16T12:14:13;9.68;;;4.20;;
70385;SDS011;63206;55.650;37.500;2023-04-16T12:16:51;10.27;;;4.35;;
70385;SDS011;63206;55.650;37.500;2023-04-16T12:19:31;10.30;;;4.60;;
70385;SDS011;63206;55.650;37.500;2023-04-16T12:22:14;10.07;;;4.80;;
70385;SDS011;63206;55.650;37.500;2023-04-16T12:24:59;7.90;;;4.30;;
70385;SDS011;63206;55.650;37.500;2023-04-16T12:27:49;10.10;;;4.90;;
70385;SDS011;63206;55.650;37.500;2023-04-16T12:30:24;8.13;;;4.57;;
70385;SDS011;63206;55.650;37.500;2023-04-16T12:33:14;10.55;;;4.38;;
70385;SDS011;63206;55.650;37.500;2023-04-16T12:35:52;8.20;;;4.53;;
70385;SDS011;63206;55.650;37.500;2023-04-16T12:38:30;11.00;;;4.40;;
70385;SDS011;63206;55.650;37.500;2023-04-16T12:41:25;10.27;;;4.30;;
70385;SDS011;63206;55.650;37.500;2023-04-16T12:44:09;8.35;;;4.20;;
70385;SDS011;63206;55.650;37.500;2023-04-16T12:46:47;9.48;;;4.30;;
70385;SDS011;63206;55.650;37.500;2023-04-16T12:49:23;8.60;;;4.50;;
70385;SDS011;63206;55.650;37.500;2023-04-16T12:51:54;9.95;;;4.53;;
70385;SDS011;63206;55.650;37.500;2023-04-16T12:54:28;9.05;;;4.43;;
70385;SDS011;63206;55.650;37.500;2023-04-16T12:57:03;7.68;;;4.63;;
70385;SDS011;63206;55.650;37.500;2023-04-16T12:59:41;9.82;;;4.93;;
70385;SDS011;63206;55.650;37.500;2023-04-16T13:02:15;8.88;;;4.68;;
70385;SDS011;63206;55.650;37.500;2023-04-16T13:04:49;9.43;;;4.30;;
70385;SDS011;63206;55.650;37.500;2023-04-16T13:07:20;10.43;;;4.72;;
70385;SDS011;63206;55.650;37.500;2023-04-16T13:09:51;9.65;;;4.47;;
70385;SDS011;63206;55.650;37.500;2023-04-16T13:12:25;9.05;;;4.40;;
70385;SDS011;63206;55.650;37.500;2023-04-16T13:15:01;10.48;;;4.47;;
70385;SDS011;63206;55.650;37.500;2023-04-16T13:17:47;8.13;;;4.13;;
70385;SDS011;63206;55.650;37.500;2023-04-16T13:20:33;8.95;;;4.05;;
70385;SDS011;63206;55.650;37.500;2023-04-16T13:23:11;8.15;;;4.00;;
70385;SDS011;63206;55.650;37.500;2023-04-16T13:25:49;9.20;;;4.63;;
70385;SDS011;63206;55.650;37.500;2023-04-16T13:28:29;9.80;;;4.45;;
70385;SDS011;63206;55.650;37.500;2023-04-16T13:31:04;8.75;;;4.50;;
70385;SDS011;63206;55.650;37.500;2023-04-16T13:33:41;9.07;;;4.13;;
70385;SDS011;63206;55.650;37.500;2023-04-16T13:36:15;10.05;;;4.80;;
70385;SDS011;63206;55.650;37.500;2023-04-16T13:39:01;12.80;;;4.47;;
70385;SDS011;63206;55.650;37.500;2023-04-16T13:41:41;10.02;;;4.43;;
70385;SDS011;63206;55.650;37.500;2023-04-16T13:44:27;11.02;;;4.78;;
70385;SDS011;63206;55.650;37.500;2023-04-16T13:47:14;10.25;;;4.45;;
70385;SDS011;63206;55.650;37.500;2023-04-16T13:49:51;9.68;;;4.30;;
70385;SDS011;63206;55.650;37.500;2023-04-16T13:52:32;9.10;;;4.18;;
70385;SDS011;63206;55.650;37.500;2023-04-16T13:55:12;9.95;;;4.10;;
70385;SDS011;63206;55.650;37.500;2023-04-16T13:57:59;10.32;;;4.15;;
70385;SDS011;63206;55.650;37.500;2023-04-16T14:00:30;10.00;;;4.15;;
70385;SDS011;63206;55.650;37.500;2023-04-16T14:03:10;11.75;;;4.32;;
70385;SDS011;63206;55.650;37.500;2023-04-16T14:05:54;8.48;;;4.00;;
70385;SDS011;63206;55.650;37.500;2023-04-16T14:08:38;8.13;;;4.00;;
70385;SDS011;63206;55.650;37.500;2023-04-16T14:11:22;11.43;;;5.00;;
70385;SDS011;63206;55.650;37.500;2023-04-16T14:14:09;10.05;;;4.50;;
70385;SDS011;63206;55.650;37.500;2023-04-16T14:16:46;9.48;;;4.20;;
70385;SDS011;63206;55.650;37.500;2023-04-16T14:19:17;9.57;;;4.57;;
70385;SDS011;63206;55.650;37.500;2023-04-16T14:21:51;11.32;;;4.65;;
70385;SDS011;63206;55.650;37.500;2023-04-16T14:24:32;9.52;;;3.90;;
70385;SDS011;63206;55.650;37.500;2023-04-16T14:27:12;8.90;;;3.85;;
70385;SDS011;63206;55.650;37.500;2023-04-16T14:29:50;10.80;;;4.13;;
70385;SDS011;63206;55.650;37.500;2023-04-16T14:32:31;8.38;;;4.00;;
70385;SDS011;63206;55.650;37.500;2023-04-16T14:34:59;9.77;;;4.32;;
70385;SDS011;63206;55.650;37.500;2023-04-16T14:37:32;8.60;;;4.50;;
70385;SDS011;63206;55.650;37.500;2023-04-16T14:40:15;13.23;;;4.50;;
70385;SDS011;63206;55.650;37.500;2023-04-16T14:42:55;8.32;;;4.10;;
70385;SDS011;63206;55.650;37.500;2023-04-16T14:45:26;10.30;;;4.50;;
70385;SDS011;63206;55.650;37.500;2023-04-16T14:48:05;9.00;;;4.25;;
70385;SDS011;63206;55.650;37.500;2023-04-16T14:50:49;9.75;;;4.20;;
70385;SDS011;63206;55.650;37.500;2023-04-16T14:53:24;11.18;;;3.95;;
70385;SDS011;63206;55.650;37.500;2023-04-16T14:56:11;9.80;;;4.22;;
70385;SDS011;63206;55.650;37.500;2023-04-16T14:58:43;9.57;;;4.45;;
70385;SDS011;63206;55.650;37.500;2023-04-16T15:01:23;10.90;;;4.32;;
70385;SDS011;63206;55.650;37.500;2023-04-16T15:04:01;9.75;;;4.50;;
70385;SDS011;63206;55.650;37.500;2023-04-16T15:06:38;8.57;;;4.05;;
70385;SDS011;63206;55.650;37.500;2023-04-16T15:09:13;9.95;;;4.40;;
70385;SDS011;63206;55.650;37.500;2023-04-16T15:14:24;12.20;;;4.18;;
70385;SDS011;63206;55.650;37.500;2023-04-16T15:17:10;9.93;;;4.60;;
70385;SDS011;63206;55.650;37.500;2023-04-16T15:19:41;11.90;;;4.72;;
70385;SDS011;63206;55.650;37.500;2023-04-16T15:22:12;14.20;;;5.53;;
70385;SDS011;63206;55.650;37.500;2023-04-16T15:24:46;10.55;;;4.25;;
70385;SDS011;63206;55.650;37.500;2023-04-16T15:27:25;10.48;;;4.70;;
70385;SDS011;63206;55.650;37.500;2023-04-16T15:30:14;10.50;;;4.40;;
70385;SDS011;63206;55.650;37.500;2023-04-16T15:32:54;9.35;;;4.18;;
70385;SDS011;63206;55.650;37.500;2023-04-16T15:35:34;10.77;;;4.90;;
70385;SDS011;63206;55.650;37.500;2023-04-16T15:38:11;9.93;;;4.35;;
70385;SDS011;63206;55.650;37.500;2023-04-16T15:40:49;9.32;;;4.53;;
70385;SDS011;63206;55.650;37.500;2023-04-16T15:43:27;11.73;;;4.80;;
70385;SDS011;63206;55.650;37.500;2023-04-16T15:46:07;10.77;;;4.78;;
70385;SDS011;63206;55.650;37.500;2023-04-16T15:48:45;10.35;;;4.68;;
70385;SDS011;63206;55.650;37.500;2023-04-16T15:51:22;11.73;;;5.28;;
70385;SDS011;63206;55.650;37.500;2023-04-16T15:53:56;10.35;;;4.90;;
70385;SDS011;63206;55.650;37.500;2023-04-16T15:56:40;9.07;;;4.65;;
70385;SDS011;63206;55.650;37.500;2023-04-16T15:59:18;10.25;;;5.07;;
70385;SDS011;63206;55.650;37.500;2023-04-16T16:01:49;11.43;;;4.78;;